Time;durP1;ratioP1;P1;durP2;ratioP2;P2;SDS_P1;SDS_P2;PMS_P1;PMS_P2;Temp;Humidity;BMP_temperature;BMP_pressure;BME280_temperature;BME280_humidity;BME280_pressure;Samples;Min_cycle;Max_cycle;Signal;HPM_P1;HPM_P2
2024/02/19 00:00:50;;;;;;;3.95;1.30;;;22.50;44.50;;;;;;5072968;28;20187;-63
2024/02/19 00:03:17;;;;;;;3.53;1.27;;;22.50;44.40;;;;;;5073530;28;20226;-64
2024/02/19 00:05:45;;;;;;;4.53;1.50;;;22.60;44.50;;;;;;5073028;28;20215;-64
2024/02/19 00:08:11;;;;;;;4.88;1.55;;;22.60;44.50;;;;;;5072853;28;20656;-63
2024/02/19 00:10:40;;;;;;;4.15;1.40;;;22.60;44.50;;;;;;5073368;28;20194;-63
2024/02/19 00:13:07;;;;;;;3.35;1.40;;;22.60;44.40;;;;;;5073174;28;20313;-65
2024/02/19 00:15:33;;;;;;;5.43;1.55;;;22.60;44.40;;;;;;5072975;28;20194;-63
2024/02/19 00:18:00;;;;;;;3.58;1.30;;;22.60;44.40;;;;;;5073119;28;20193;-64
2024/02/19 00:20:28;;;;;;;4.97;1.50;;;22.60;44.40;;;;;;5072810;28;20562;-64
2024/02/19 00:22:55;;;;;;;4.15;1.50;;;22.60;44.40;;;;;;5072870;28;20249;-64
2024/02/19 00:25:22;;;;;;;3.60;1.48;;;22.50;44.30;;;;;;5072937;28;20266;-63
2024/02/19 00:27:50;;;;;;;4.25;1.40;;;22.50;44.30;;;;;;5072837;28;20297;-64
2024/02/19 00:30:17;;;;;;;3.53;1.23;;;22.50;44.30;;;;;;5072463;28;20321;-64
2024/02/19 00:32:44;;;;;;;3.47;1.05;;;22.50;44.30;;;;;;5072955;28;20198;-64
2024/02/19 00:35:11;;;;;;;3.78;1.35;;;22.50;44.30;;;;;;5072926;28;20219;-64
2024/02/19 00:37:38;;;;;;;4.55;1.33;;;22.50;44.30;;;;;;5072547;28;20197;-65
2024/02/19 00:40:06;;;;;;;3.90;1.27;;;22.50;44.30;;;;;;5072709;28;20214;-63
2024/02/19 00:42:33;;;;;;;3.42;1.20;;;22.50;44.30;;;;;;5072722;28;20279;-64
2024/02/19 00:45:01;;;;;;;2.90;1.20;;;22.50;44.20;;;;;;5072650;28;20310;-64
2024/02/19 00:47:28;;;;;;;4.70;1.40;;;22.50;44.30;;;;;;5072585;28;20306;-63
2024/02/19 00:49:55;;;;;;;4.82;1.75;;;22.50;44.20;;;;;;5072210;28;20282;-64
2024/02/19 00:52:22;;;;;;;4.32;1.40;;;22.50;44.20;;;;;;5072418;28;20285;-64
2024/02/19 00:54:49;;;;;;;4.45;1.42;;;22.50;44.20;;;;;;5072401;28;20564;-64
2024/02/19 00:57:16;;;;;;;4.72;1.30;;;22.50;44.20;;;;;;5072555;28;20218;-63
2024/02/19 00:59:43;;;;;;;3.30;1.20;;;22.50;44.10;;;;;;5072174;28;20218;-64
2024/02/19 01:02:11;;;;;;;5.25;1.70;;;22.50;44.00;;;;;;5070569;28;20187;-63
2024/02/19 01:04:38;;;;;;;6.20;1.92;;;22.50;44.00;;;;;;5072355;28;20218;-64
2024/02/19 01:07:05;;;;;;;3.55;1.30;;;22.50;44.00;;;;;;5071809;28;20704;-64
2024/02/19 01:09:32;;;;;;;3.83;1.30;;;22.50;44.00;;;;;;5072549;28;20224;-64
2024/02/19 01:11:58;;;;;;;5.43;1.60;;;22.50;43.90;;;;;;5072178;28;20644;-64
2024/02/19 01:14:25;;;;;;;4.13;1.48;;;22.50;43.90;;;;;;5071947;28;20417;-64
2024/02/19 01:16:52;;;;;;;9.63;1.80;;;22.50;43.90;;;;;;5072382;28;20186;-64
2024/02/19 01:19:21;;;;;;;4.90;1.58;;;22.50;43.90;;;;;;5072272;28;20218;-64
2024/02/19 01:21:50;;;;;;;3.58;1.20;;;22.50;43.80;;;;;;5072175;28;20187;-63
2024/02/19 01:24:17;;;;;;;4.68;1.42;;;22.50;43.80;;;;;;5072362;28;20225;-64
2024/02/19 01:26:45;;;;;;;5.60;1.60;;;22.50;43.80;;;;;;5071842;28;20604;-63
2024/02/19 01:29:12;;;;;;;4.57;1.40;;;22.50;43.90;;;;;;5071784;28;20222;-63
2024/02/19 01:31:39;;;;;;;4.03;1.20;;;22.50;43.90;;;;;;5072536;28;20278;-64
2024/02/19 01:34:08;;;;;;;5.32;1.60;;;22.50;43.90;;;;;;5071955;28;20704;-64
2024/02/19 01:36:36;;;;;;;4.25;1.40;;;22.50;43.80;;;;;;5071911;28;20195;-63
2024/02/19 01:39:03;;;;;;;4.30;1.50;;;22.50;43.80;;;;;;5072294;28;20306;-61
2024/02/19 01:41:30;;;;;;;5.15;1.73;;;22.50;43.80;;;;;;5072156;28;20286;-62
2024/02/19 01:43:57;;;;;;;4.50;1.40;;;22.50;43.80;;;;;;5071595;28;20783;-64
2024/02/19 01:46:24;;;;;;;6.65;1.73;;;22.50;43.80;;;;;;5072335;28;20220;-65
2024/02/19 01:48:52;;;;;;;3.75;1.30;;;22.50;43.90;;;;;;5071803;28;20672;-64
2024/02/19 01:51:20;;;;;;;3.88;1.65;;;22.50;43.90;;;;;;5071812;28;20241;-63
2024/02/19 01:53:49;;;;;;;3.38;1.30;;;22.50;43.90;;;;;;5072101;28;20218;-65
2024/02/19 01:56:16;;;;;;;4.57;1.60;;;22.50;43.80;;;;;;5071954;28;20277;-64
2024/02/19 01:58:46;;;;;;;5.13;1.60;;;22.50;43.80;;;;;;5071467;28;20223;-65
2024/02/19 02:01:13;;;;;;;5.80;1.85;;;22.50;43.80;;;;;;5073236;28;20187;-64
2024/02/19 02:03:41;;;;;;;5.43;1.60;;;22.50;43.80;;;;;;5075501;28;20304;-64
2024/02/19 02:06:08;;;;;;;4.90;1.70;;;22.50;43.80;;;;;;5075269;28;20191;-64
2024/02/19 02:08:39;;;;;;;4.97;1.40;;;22.50;43.70;;;;;;5075619;28;20310;-61
2024/02/19 02:11:07;;;;;;;4.35;1.42;;;22.50;44.50;;;;;;5075496;28;20187;-61
2024/02/19 02:13:34;;;;;;;4.68;1.60;;;22.50;43.70;;;;;;5075218;28;20766;-61
2024/02/19 02:16:01;;;;;;;5.55;1.75;;;22.50;43.70;;;;;;5075206;28;20728;-61
2024/02/19 02:18:29;;;;;;;4.45;1.60;;;22.50;43.70;;;;;;5075115;28;20240;-61
2024/02/19 02:20:55;;;;;;;5.82;2.03;;;22.50;43.70;;;;;;5074910;28;20278;-61
2024/02/19 02:23:24;;;;;;;5.43;1.55;;;22.50;43.70;;;;;;5075369;28;20306;-60
2024/02/19 02:25:51;;;;;;;5.05;1.52;;;22.50;43.70;;;;;;5075329;28;20195;-61
2024/02/19 02:28:19;;;;;;;3.60;1.23;;;22.50;43.70;;;;;;5074840;28;21763;-61
2024/02/19 02:30:46;;;;;;;5.63;1.75;;;22.50;43.60;;;;;;5075283;28;20274;-65
2024/02/19 02:33:13;;;;;;;4.55;1.75;;;22.50;43.70;;;;;;5075106;28;20205;-64
2024/02/19 02:35:40;;;;;;;5.70;1.73;;;22.50;43.70;;;;;;5074908;28;20187;-65
2024/02/19 02:38:07;;;;;;;5.90;1.75;;;22.50;43.70;;;;;;5075095;28;20274;-64
2024/02/19 02:40:33;;;;;;;4.75;1.48;;;22.50;43.70;;;;;;5074753;28;20661;-64
2024/02/19 02:43:00;;;;;;;4.97;1.80;;;22.50;43.70;;;;;;5074866;28;20270;-60
2024/02/19 02:45:29;;;;;;;5.68;1.80;;;22.40;43.70;;;;;;5074922;28;20274;-61
2024/02/19 02:47:56;;;;;;;3.80;1.40;;;22.50;43.70;;;;;;5074914;28;20284;-61
2024/02/19 02:50:23;;;;;;;4.40;1.50;;;22.50;43.70;;;;;;5074584;28;20218;-63
2024/02/19 02:52:51;;;;;;;6.82;1.63;;;22.50;43.70;;;;;;5074854;28;20285;-63
2024/02/19 02:55:18;;;;;;;5.15;1.70;;;22.50;43.70;;;;;;5075002;28;20215;-64
2024/02/19 02:57:45;;;;;;;5.90;1.67;;;22.50;43.70;;;;;;5074308;28;20864;-63
2024/02/19 03:00:12;;;;;;;5.55;1.42;;;22.50;43.70;;;;;;5074554;28;20795;-64
2024/02/19 03:02:40;;;;;;;6.18;1.67;;;22.50;43.70;;;;;;5074765;28;20186;-64
2024/02/19 03:05:08;;;;;;;4.18;1.60;;;22.50;43.60;;;;;;5074578;28;20230;-64
2024/02/19 03:07:35;;;;;;;4.50;1.42;;;22.50;43.50;;;;;;5074514;28;20225;-63
2024/02/19 03:10:02;;;;;;;4.00;1.67;;;22.50;43.50;;;;;;5074488;28;20357;-64
2024/02/19 03:12:29;;;;;;;4.22;1.38;;;22.50;43.50;;;;;;5074454;28;20725;-64
2024/02/19 03:14:56;;;;;;;5.70;1.70;;;22.50;43.50;;;;;;5074476;28;20218;-63
2024/02/19 03:17:23;;;;;;;4.43;1.50;;;22.50;43.40;;;;;;5074416;28;20511;-64
2024/02/19 03:19:51;;;;;;;6.72;1.92;;;22.50;43.40;;;;;;5074154;28;20601;-63
2024/02/19 03:22:18;;;;;;;4.03;1.40;;;22.50;43.40;;;;;;5074181;28;20223;-62
2024/02/19 03:24:45;;;;;;;6.60;1.60;;;22.50;43.40;;;;;;5074064;28;20221;-60
2024/02/19 03:27:12;;;;;;;4.85;1.52;;;22.50;43.40;;;;;;5074194;28;20306;-61
2024/02/19 03:29:39;;;;;;;4.15;1.40;;;22.50;43.40;;;;;;5073554;28;20239;-62
2024/02/19 03:32:06;;;;;;;5.80;1.55;;;22.50;43.50;;;;;;5074453;28;20195;-61
2024/02/19 03:34:33;;;;;;;3.83;1.40;;;22.50;43.40;;;;;;5074209;28;20225;-61
2024/02/19 03:37:01;;;;;;;5.53;1.73;;;22.50;43.50;;;;;;5074362;28;20289;-64
2024/02/19 03:39:28;;;;;;;5.45;1.63;;;22.50;43.40;;;;;;5074053;28;20305;-64
2024/02/19 03:41:55;;;;;;;3.10;1.48;;;22.50;43.40;;;;;;5073828;28;20182;-63
2024/02/19 03:44:23;;;;;;;5.93;1.80;;;22.50;43.50;;;;;;5073453;28;20215;-64
2024/02/19 03:46:49;;;;;;;4.40;1.67;;;22.50;43.40;;;;;;5073741;28;20202;-64
2024/02/19 03:49:16;;;;;;;4.00;1.58;;;22.40;43.30;;;;;;5073772;28;20657;-65
2024/02/19 03:51:43;;;;;;;4.40;1.40;;;22.50;43.50;;;;;;5073515;28;20270;-64
2024/02/19 03:54:11;;;;;;;4.35;1.30;;;22.50;43.40;;;;;;5073670;28;20237;-63
2024/02/19 03:56:38;;;;;;;5.18;1.65;;;22.50;43.50;;;;;;5073640;28;20187;-64
2024/02/19 03:59:05;;;;;;;4.63;1.35;;;22.50;43.40;;;;;;5073103;28;20651;-64
2024/02/19 04:01:32;;;;;;;3.38;1.55;;;22.50;43.40;;;;;;5073530;28;20193;-64
2024/02/19 04:03:59;;;;;;;3.53;1.35;;;22.50;43.50;;;;;;5073433;28;20309;-64
2024/02/19 04:06:26;;;;;;;4.97;1.45;;;22.50;43.50;;;;;;5073475;28;20270;-64
2024/02/19 04:08:52;;;;;;;6.10;1.70;;;22.50;43.40;;;;;;5073402;28;20237;-65
2024/02/19 04:11:21;;;;;;;4.28;1.27;;;22.50;43.40;;;;;;5073307;28;20191;-64
2024/02/19 04:13:47;;;;;;;6.65;1.52;;;22.50;43.40;;;;;;5072990;28;20210;-66
2024/02/19 04:16:14;;;;;;;4.28;1.38;;;22.50;43.40;;;;;;5073252;28;20195;-63
2024/02/19 04:18:41;;;;;;;3.90;1.40;;;22.50;43.50;;;;;;5073158;28;20214;-63
2024/02/19 04:21:08;;;;;;;5.60;1.85;;;22.50;43.50;;;;;;5072998;28;20273;-63
2024/02/19 04:23:35;;;;;;;5.43;1.58;;;22.50;43.40;;;;;;5072598;28;20301;-63
2024/02/19 04:26:02;;;;;;;4.97;1.95;;;22.50;43.40;;;;;;5073092;28;20619;-63
2024/02/19 04:28:30;;;;;;;6.07;1.90;;;22.50;43.40;;;;;;5072216;28;20804;-64
2024/02/19 04:30:57;;;;;;;5.65;1.90;;;22.50;43.40;;;;;;5073195;28;20198;-65
2024/02/19 04:33:24;;;;;;;5.78;1.48;;;22.50;43.40;;;;;;5073118;28;20283;-64
2024/02/19 04:35:50;;;;;;;5.57;1.48;;;22.50;43.40;;;;;;5072308;28;20278;-63
2024/02/19 04:38:17;;;;;;;6.93;1.95;;;22.50;43.40;;;;;;5072507;28;20187;-64
2024/02/19 04:40:44;;;;;;;6.25;1.75;;;22.50;43.40;;;;;;5072903;28;20269;-64
2024/02/19 04:43:11;;;;;;;4.22;1.35;;;22.50;44.00;;;;;;5072212;28;20736;-64
2024/02/19 04:45:39;;;;;;;6.53;1.90;;;22.50;43.40;;;;;;5072707;28;20282;-64
2024/02/19 04:48:07;;;;;;;6.35;1.73;;;22.50;43.40;;;;;;5072601;28;20211;-64
2024/02/19 04:50:34;;;;;;;6.88;1.80;;;22.40;43.30;;;;;;5072474;28;20219;-65
2024/02/19 04:53:00;;;;;;;5.28;1.77;;;22.50;43.40;;;;;;5072692;28;20197;-64
2024/02/19 04:55:27;;;;;;;6.47;1.98;;;22.40;43.30;;;;;;5072836;28;20660;-63
2024/02/19 04:57:54;;;;;;;7.00;1.75;;;22.40;43.30;;;;;;5072446;28;20274;-64
2024/02/19 05:00:21;;;;;;;5.18;1.52;;;22.50;43.40;;;;;;5072769;28;20215;-63
2024/02/19 05:02:50;;;;;;;5.22;1.63;;;22.50;43.40;;;;;;5072559;28;20219;-63
2024/02/19 05:05:16;;;;;;;5.47;1.48;;;22.40;43.30;;;;;;5071990;28;20390;-64
2024/02/19 05:07:43;;;;;;;8.68;2.20;;;22.40;43.30;;;;;;5072435;28;20218;-64
2024/02/19 05:10:11;;;;;;;5.68;1.75;;;22.40;43.30;;;;;;5072658;28;20218;-64
2024/02/19 05:12:38;;;;;;;7.70;1.85;;;22.50;44.00;;;;;;5072273;28;20186;-64
2024/02/19 05:15:07;;;;;;;6.82;1.58;;;22.50;43.40;;;;;;5072748;28;20221;-63
2024/02/19 05:17:34;;;;;;;4.70;1.48;;;22.40;43.20;;;;;;5072069;28;20282;-63
2024/02/19 05:20:05;;;;;;;5.38;1.70;;;22.50;43.30;;;;;;5072150;28;20223;-63
2024/02/19 05:22:33;;;;;;;7.72;2.20;;;22.50;43.20;;;;;;5072347;28;20183;-62
2024/02/19 05:25:00;;;;;;;6.18;1.92;;;22.50;43.10;;;;;;5072376;28;20306;-61
2024/02/19 05:27:27;;;;;;;6.55;2.40;;;22.40;43.10;;;;;;5071986;28;20614;-61
2024/02/19 05:29:54;;;;;;;6.38;2.00;;;22.50;43.10;;;;;;5071953;28;20318;-61
2024/02/19 05:32:22;;;;;;;6.82;1.80;;;22.50;43.10;;;;;;5072557;28;20315;-61
2024/02/19 05:34:49;;;;;;;5.97;1.95;;;22.50;43.10;;;;;;5071952;28;20211;-61
2024/02/19 05:37:18;;;;;;;8.63;1.98;;;22.50;43.20;;;;;;5075412;28;20266;-62
2024/02/19 05:39:45;;;;;;;6.63;2.05;;;22.50;43.00;;;;;;5076038;28;20319;-61
2024/02/19 05:42:11;;;;;;;6.07;1.70;;;22.50;43.00;;;;;;5075971;28;20278;-61
2024/02/19 05:44:38;;;;;;;5.32;1.85;;;22.50;43.00;;;;;;5075918;28;20214;-64
2024/02/19 05:47:05;;;;;;;7.05;1.95;;;22.50;43.70;;;;;;5076176;28;20252;-64
2024/02/19 05:49:32;;;;;;;7.25;2.13;;;22.40;43.00;;;;;;5075854;28;20253;-62
2024/02/19 05:51:59;;;;;;;6.18;1.70;;;22.40;43.00;;;;;;5075747;28;20277;-61
2024/02/19 05:54:27;;;;;;;6.22;2.10;;;22.50;43.10;;;;;;5075979;28;20249;-62
2024/02/19 05:56:54;;;;;;;5.78;1.52;;;22.40;43.00;;;;;;5075696;28;20191;-60
2024/02/19 05:59:21;;;;;;;5.63;1.60;;;22.40;43.00;;;;;;5075961;28;20223;-63
2024/02/19 06:01:49;;;;;;;8.02;2.10;;;22.40;43.00;;;;;;5075819;28;20290;-61
2024/02/19 06:04:16;;;;;;;8.68;2.13;;;22.40;43.00;;;;;;5075479;28;20270;-61
2024/02/19 06:06:43;;;;;;;5.30;1.98;;;22.40;43.00;;;;;;5075455;28;20210;-63
2024/02/19 06:09:10;;;;;;;6.95;1.90;;;22.40;42.90;;;;;;5075406;28;20700;-63
2024/02/19 06:11:44;;;;;;;6.57;1.77;;;22.40;42.90;;;;;;5075421;28;20191;-64
2024/02/19 06:14:11;;;;;;;6.18;1.67;;;22.40;42.90;;;;;;5075335;28;20222;-64
2024/02/19 06:16:38;;;;;;;6.65;2.30;;;22.40;42.90;;;;;;5075535;28;20281;-61
2024/02/19 06:19:05;;;;;;;6.97;2.05;;;22.40;42.90;;;;;;5075405;28;20309;-61
2024/02/19 06:21:32;;;;;;;5.30;1.70;;;22.40;42.80;;;;;;5075399;28;20212;-62
2024/02/19 06:23:58;;;;;;;6.32;1.92;;;22.40;42.80;;;;;;5075375;28;20217;-61
2024/02/19 06:26:26;;;;;;;7.75;1.92;;;22.40;42.70;;;;;;5075254;28;20277;-61
2024/02/19 06:28:54;;;;;;;5.15;1.90;;;22.50;42.80;;;;;;5074604;28;20234;-60
2024/02/19 06:31:27;;;;;;;6.55;1.75;;;22.50;42.70;;;;;;5074010;28;20665;-61
2024/02/19 06:33:54;;;;;;;6.75;1.90;;;22.50;42.70;;;;;;5073359;28;20219;-61
2024/02/19 06:36:21;;;;;;;7.28;1.83;;;22.50;42.70;;;;;;5074047;28;20209;-61
2024/02/19 06:38:48;;;;;;;7.60;1.92;;;22.50;42.70;;;;;;5073942;28;20301;-61
2024/02/19 06:41:15;;;;;;;8.23;2.13;;;22.40;43.30;;;;;;5073357;28;20200;-61
2024/02/19 06:43:41;;;;;;;6.47;1.70;;;22.50;42.70;;;;;;5073836;28;20221;-62
2024/02/19 06:46:11;;;;;;;6.97;1.83;;;22.40;42.60;;;;;;5073797;28;20195;-64
2024/02/19 06:48:38;;;;;;;7.32;2.00;;;22.40;42.60;;;;;;5073332;28;20264;-61
2024/02/19 06:51:05;;;;;;;7.18;1.90;;;22.40;42.60;;;;;;5073856;28;20282;-61
2024/02/19 06:53:32;;;;;;;7.35;1.95;;;22.40;42.70;;;;;;5073707;28;20269;-61
2024/02/19 06:56:00;;;;;;;5.40;1.50;;;22.40;42.60;;;;;;5073221;28;20645;-61
2024/02/19 06:58:27;;;;;;;7.38;1.95;;;22.40;42.60;;;;;;5073576;28;20238;-62
2024/02/19 07:00:53;;;;;;;7.78;2.03;;;22.40;42.60;;;;;;5073356;28;20831;-61
2024/02/19 07:03:22;;;;;;;10.50;2.22;;;22.40;42.60;;;;;;5073042;28;20274;-62
2024/02/19 07:05:49;;;;;;;5.32;1.60;;;22.40;42.60;;;;;;5073556;28;20191;-61
2024/02/19 07:08:15;;;;;;;5.85;1.65;;;22.40;42.60;;;;;;5073491;28;20633;-61
2024/02/19 07:10:42;;;;;;;5.85;1.73;;;22.40;42.60;;;;;;5073202;28;20297;-61
2024/02/19 07:13:09;;;;;;;6.80;2.17;;;22.40;42.60;;;;;;5073199;28;20193;-61
2024/02/19 07:15:36;;;;;;;5.97;1.90;;;22.40;42.60;;;;;;5073583;28;20301;-61
2024/02/19 07:18:03;;;;;;;5.53;1.63;;;22.40;42.50;;;;;;5073122;28;20245;-60
2024/02/19 07:20:31;;;;;;;6.13;1.98;;;22.40;42.40;;;;;;5073075;28;20215;-61
2024/02/19 07:23:00;;;;;;;8.20;1.98;;;22.40;42.40;;;;;;5073321;28;20277;-64
2024/02/19 07:25:27;;;;;;;7.53;1.85;;;22.40;42.50;;;;;;5072874;28;20569;-61
2024/02/19 07:27:53;;;;;;;6.45;1.92;;;22.40;42.40;;;;;;5073169;28;20187;-62
2024/02/19 07:30:20;;;;;;;9.93;1.90;;;22.40;42.40;;;;;;5033796;28;1126624;-61
2024/02/19 07:32:47;;;;;;;5.10;1.52;;;22.50;42.40;;;;;;5074121;28;20274;-62
2024/02/19 07:35:14;;;;;;;7.53;1.77;;;22.50;42.40;;;;;;5074122;28;20309;-61
2024/02/19 07:37:42;;;;;;;6.13;1.92;;;22.50;42.30;;;;;;5073774;28;20193;-64
2024/02/19 07:40:10;;;;;;;6.95;2.10;;;22.50;42.30;;;;;;5073848;28;20225;-64
2024/02/19 07:42:37;;;;;;;5.45;1.73;;;22.40;42.20;;;;;;5073997;28;20187;-64
2024/02/19 07:45:05;;;;;;;4.72;1.70;;;22.50;42.30;;;;;;5073717;28;20826;-64
2024/02/19 07:47:32;;;;;;;6.38;1.67;;;22.50;42.20;;;;;;5073635;28;20285;-62
2024/02/19 07:49:59;;;;;;;6.88;1.77;;;22.40;42.10;;;;;;5073724;28;20226;-61
2024/02/19 07:52:26;;;;;;;5.28;1.55;;;22.40;42.10;;;;;;5073712;28;20285;-61
2024/02/19 07:54:54;;;;;;;8.65;2.00;;;22.40;42.10;;;;;;5073531;28;20309;-61
2024/02/19 07:57:21;;;;;;;6.00;1.55;;;22.40;42.10;;;;;;5073279;28;20190;-61
2024/02/19 07:59:48;;;;;;;6.28;1.88;;;22.40;42.10;;;;;;5072549;28;20225;-63
2024/02/19 08:02:15;;;;;;;7.90;2.08;;;22.40;42.10;;;;;;5073356;28;20273;-63
2024/02/19 08:04:42;;;;;;;6.00;1.90;;;22.40;42.80;;;;;;5073398;28;20569;-61
2024/02/19 08:07:09;;;;;;;6.45;1.60;;;22.40;42.20;;;;;;5073117;28;20191;-61
2024/02/19 08:09:36;;;;;;;5.70;2.03;;;22.40;42.20;;;;;;5073171;28;20314;-60
2024/02/19 08:12:04;;;;;;;4.85;1.55;;;22.40;42.20;;;;;;5073390;28;20277;-61
2024/02/19 08:14:31;;;;;;;7.90;1.80;;;22.40;42.20;;;;;;5073303;28;20246;-61
2024/02/19 08:16:58;;;;;;;5.07;2.10;;;22.40;42.10;;;;;;5073118;28;20203;-62
2024/02/19 08:19:25;;;;;;;5.32;1.58;;;22.40;42.10;;;;;;5073271;28;20310;-61
2024/02/19 08:21:52;;;;;;;5.05;1.90;;;22.40;42.10;;;;;;5073187;28;20209;-61
2024/02/19 08:24:18;;;;;;;7.68;1.85;;;22.40;42.10;;;;;;5072551;28;20221;-62
2024/02/19 08:26:45;;;;;;;6.78;1.90;;;22.40;42.10;;;;;;5073049;28;20206;-61
2024/02/19 08:29:14;;;;;;;6.57;1.70;;;22.40;42.10;;;;;;5072455;28;20742;-61
2024/02/19 08:31:41;;;;;;;6.60;2.17;;;22.40;42.10;;;;;;5072994;28;20225;-61
2024/02/19 08:34:08;;;;;;;5.60;1.60;;;22.40;42.00;;;;;;5072898;28;20310;-61
2024/02/19 08:36:36;;;;;;;4.28;1.63;;;22.40;42.00;;;;;;5073166;28;20282;-61
2024/02/19 08:39:04;;;;;;;5.93;1.80;;;22.40;42.00;;;;;;5072568;28;20222;-62
2024/02/19 08:41:31;;;;;;;5.05;1.65;;;22.40;42.00;;;;;;5072812;28;20289;-60
2024/02/19 08:43:58;;;;;;;4.03;1.60;;;22.40;41.90;;;;;;5072516;28;20305;-61
2024/02/19 08:46:26;;;;;;;5.28;1.75;;;22.40;41.90;;;;;;5072546;28;20277;-62
2024/02/19 08:48:53;;;;;;;4.95;1.55;;;22.40;41.90;;;;;;5072649;28;20314;-61
2024/02/19 08:51:20;;;;;;;6.18;1.90;;;22.40;41.90;;;;;;5072429;28;20592;-62
2024/02/19 08:53:47;;;;;;;7.15;1.70;;;22.40;41.90;;;;;;5072325;28;20191;-61
2024/02/19 08:56:14;;;;;;;8.18;1.95;;;22.40;41.80;;;;;;5072351;28;20598;-64
2024/02/19 08:58:41;;;;;;;5.05;1.58;;;22.40;41.90;;;;;;5072280;28;20657;-61
2024/02/19 09:01:10;;;;;;;6.32;1.83;;;22.40;41.90;;;;;;5072428;28;20179;-64
2024/02/19 09:03:38;;;;;;;5.05;1.60;;;22.40;41.90;;;;;;5072368;28;20201;-62
2024/02/19 09:06:06;;;;;;;6.97;1.70;;;22.40;41.90;;;;;;5072490;28;20273;-63
2024/02/19 09:08:33;;;;;;;7.35;2.03;;;22.40;41.90;;;;;;5072149;28;20227;-64
2024/02/19 09:11:00;;;;;;;6.35;1.90;;;22.40;41.90;;;;;;5072412;28;20271;-64
2024/02/19 09:13:27;;;;;;;5.95;1.75;;;22.40;41.90;;;;;;5072679;28;20195;-62
2024/02/19 09:15:54;;;;;;;4.28;1.70;;;22.40;42.60;;;;;;5072128;28;20716;-61
2024/02/19 09:18:21;;;;;;;5.50;1.65;;;22.40;42.00;;;;;;5072072;28;20248;-61
2024/02/19 09:20:49;;;;;;;6.28;2.00;;;22.40;41.90;;;;;;5072309;28;20253;-63
2024/02/19 09:23:16;;;;;;;5.30;1.90;;;22.40;41.90;;;;;;5071944;28;20282;-60
2024/02/19 09:25:43;;;;;;;5.72;1.52;;;22.40;42.00;;;;;;5072221;28;20253;-60
2024/02/19 09:28:10;;;;;;;8.30;1.88;;;22.40;41.90;;;;;;5072211;28;20202;-60
2024/02/19 09:30:37;;;;;;;7.72;1.67;;;22.40;42.00;;;;;;5071750;28;20333;-60
2024/02/19 09:33:05;;;;;;;8.73;2.20;;;22.40;41.90;;;;;;5072137;28;20759;-60
2024/02/19 09:35:32;;;;;;;9.70;2.70;;;22.40;42.00;;;;;;5071865;28;20723;-61
2024/02/19 09:38:00;;;;;;;8.68;2.35;;;22.40;42.00;;;;;;5072006;28;20205;-61
2024/02/19 09:40:33;;;;;;;9.80;2.22;;;22.50;42.10;;;;;;5072323;28;20314;-61
2024/02/19 09:43:00;;;;;;;9.57;2.70;;;22.60;42.00;;;;;;5072185;28;20210;-61
2024/02/19 09:45:27;;;;;;;10.15;2.22;;;22.70;41.90;;;;;;5071538;28;20218;-61
2024/02/19 09:47:59;;;;;;;11.20;2.80;;;22.80;41.80;;;;;;5071849;28;20648;-62
2024/02/19 09:50:28;;;;;;;11.77;2.42;;;22.90;41.80;;;;;;5072053;28;20261;-61
2024/02/19 09:52:59;;;;;;;12.75;2.53;;;22.90;42.50;;;;;;5071469;28;20274;-62
2024/02/19 09:55:27;;;;;;;11.45;2.38;;;22.80;42.10;;;;;;5072089;28;20305;-62
2024/02/19 09:57:56;;;;;;;10.02;2.28;;;22.80;42.70;;;;;;5071731;28;20282;-62
2024/02/19 10:00:23;;;;;;;8.10;2.20;;;22.70;42.90;;;;;;5071562;28;20211;-64
2024/02/19 10:02:50;;;;;;;9.88;2.17;;;22.60;43.20;;;;;;5071501;28;20715;-65
2024/02/19 10:05:17;;;;;;;8.90;2.72;;;22.60;43.40;;;;;;5071927;28;20218;-67
2024/02/19 10:07:45;;;;;;;10.05;2.95;;;22.60;43.50;;;;;;5071624;28;20278;-67
2024/02/19 10:10:13;;;;;;;6.60;2.13;;;22.60;43.90;;;;;;5071573;28;20237;-67
2024/02/19 10:12:41;;;;;;;13.15;2.65;;;22.60;44.00;;;;;;5071611;28;20193;-67
2024/02/19 10:15:08;;;;;;;12.55;2.80;;;22.60;44.20;;;;;;5071386;28;20573;-64
2024/02/19 10:17:35;;;;;;;8.45;2.45;;;22.60;44.20;;;;;;5071833;28;20214;-64
2024/02/19 10:20:05;;;;;;;11.30;2.63;;;22.60;44.20;;;;;;5071782;28;20250;-64
2024/02/19 10:22:32;;;;;;;11.90;2.90;;;22.60;44.20;;;;;;5073088;28;20233;-67
2024/02/19 10:25:00;;;;;;;8.93;2.35;;;22.60;44.10;;;;;;5075461;28;20254;-67
2024/02/19 10:27:29;;;;;;;11.13;2.55;;;22.60;44.10;;;;;;5075397;28;20240;-66
2024/02/19 10:29:58;;;;;;;8.30;2.42;;;22.50;43.90;;;;;;5074725;28;20245;-67
2024/02/19 10:32:25;;;;;;;8.10;2.20;;;22.50;43.90;;;;;;5075580;28;20209;-67
2024/02/19 10:34:52;;;;;;;13.90;2.60;;;22.50;43.80;;;;;;5075232;28;20416;-66
2024/02/19 10:37:19;;;;;;;10.07;2.42;;;22.50;43.80;;;;;;5075035;28;20202;-67
2024/02/19 10:39:46;;;;;;;10.05;2.30;;;22.50;43.70;;;;;;5074994;28;20218;-67
2024/02/19 10:42:14;;;;;;;14.38;2.95;;;22.50;43.70;;;;;;5075488;28;20272;-67
2024/02/19 10:44:41;;;;;;;11.63;2.58;;;22.50;43.60;;;;;;5074601;28;20226;-67
2024/02/19 10:47:10;;;;;;;8.88;2.20;;;22.50;43.50;;;;;;5075108;28;20575;-67
2024/02/19 10:49:37;;;;;;;8.88;2.30;;;22.50;43.50;;;;;;5074985;28;20231;-67
2024/02/19 10:52:06;;;;;;;11.27;2.33;;;22.50;43.40;;;;;;5074843;28;20191;-66
2024/02/19 10:54:33;;;;;;;9.10;2.25;;;22.50;43.40;;;;;;5074952;28;20217;-67
2024/02/19 10:57:08;;;;;;;8.65;2.47;;;22.50;43.40;;;;;;5074887;28;20277;-67
2024/02/19 10:59:36;;;;;;;7.45;2.15;;;22.50;43.40;;;;;;5074654;28;20229;-67
2024/02/19 11:02:11;;;;;;;8.48;2.30;;;22.50;43.40;;;;;;5074858;28;20187;-67
2024/02/19 11:04:38;;;;;;;8.57;2.20;;;22.50;43.40;;;;;;5074596;28;20306;-67
2024/02/19 11:07:06;;;;;;;8.80;2.33;;;22.50;43.40;;;;;;5074482;28;20270;-67
2024/02/19 11:09:34;;;;;;;9.48;2.60;;;22.50;43.40;;;;;;5074616;28;20280;-67
2024/02/19 11:12:02;;;;;;;12.30;2.45;;;22.50;43.40;;;;;;5074293;28;20190;-67
2024/02/19 11:14:31;;;;;;;7.47;2.00;;;22.50;43.40;;;;;;5074354;28;20301;-67
2024/02/19 11:16:58;;;;;;;6.80;2.22;;;22.40;43.30;;;;;;5074487;28;20274;-66
2024/02/19 11:19:27;;;;;;;7.30;2.00;;;22.40;43.30;;;;;;5074468;28;20215;-67
2024/02/19 11:22:03;;;;;;;8.73;2.20;;;22.50;43.40;;;;;;5074236;28;20395;-67
2024/02/19 11:24:31;;;;;;;7.70;2.10;;;22.50;43.40;;;;;;5074323;28;20214;-67
2024/02/19 11:26:58;;;;;;;8.20;2.47;;;22.50;43.40;;;;;;5074268;28;20191;-67
2024/02/19 11:29:26;;;;;;;7.60;2.22;;;22.50;43.40;;;;;;5073572;28;20783;-67
2024/02/19 11:31:59;;;;;;;9.27;2.30;;;22.50;43.40;;;;;;5074509;28;20191;-67
2024/02/19 11:34:28;;;;;;;8.02;2.20;;;22.50;43.40;;;;;;5073139;28;20219;-66
2024/02/19 11:37:01;;;;;;;10.93;2.80;;;22.40;43.30;;;;;;5073968;28;20201;-67
2024/02/19 11:39:28;;;;;;;7.95;2.30;;;22.50;43.30;;;;;;5074067;28;20301;-67
2024/02/19 11:41:55;;;;;;;7.22;2.47;;;22.50;43.20;;;;;;5073928;28;20294;-67
2024/02/19 11:44:22;;;;;;;8.40;2.10;;;22.50;43.20;;;;;;5073508;28;20711;-67
2024/02/19 11:46:50;;;;;;;8.73;2.35;;;22.50;43.20;;;;;;5073920;28;20187;-67
2024/02/19 11:49:19;;;;;;;7.28;1.90;;;22.40;43.20;;;;;;5073908;28;20297;-67
2024/02/19 11:51:48;;;;;;;7.35;1.80;;;22.50;43.20;;;;;;5073269;28;20660;-67
2024/02/19 11:54:16;;;;;;;6.38;2.10;;;22.50;43.30;;;;;;5073705;28;20305;-67
2024/02/19 11:56:44;;;;;;;5.53;2.08;;;22.40;43.20;;;;;;5073720;28;20202;-67
2024/02/19 11:59:12;;;;;;;9.18;2.50;;;22.50;43.30;;;;;;5073404;28;20215;-67
2024/02/19 12:01:39;;;;;;;7.07;2.25;;;22.40;43.20;;;;;;5073585;28;20273;-67
2024/02/19 12:04:07;;;;;;;7.25;2.10;;;22.40;43.20;;;;;;5073506;28;20197;-67
2024/02/19 12:06:37;;;;;;;6.72;2.03;;;22.40;43.20;;;;;;5073231;28;20187;-67
2024/02/19 12:09:07;;;;;;;6.97;1.92;;;22.40;43.20;;;;;;5073468;28;20187;-66
2024/02/19 12:11:34;;;;;;;7.57;2.30;;;22.40;43.20;;;;;;5073285;28;20214;-67
2024/02/19 12:14:03;;;;;;;6.85;2.00;;;22.40;43.20;;;;;;5073025;28;20277;-66
2024/02/19 12:16:29;;;;;;;5.15;1.50;;;22.40;43.20;;;;;;5072983;28;20230;-67
2024/02/19 12:18:56;;;;;;;6.80;1.90;;;22.40;43.20;;;;;;5073492;28;20187;-67
2024/02/19 12:21:23;;;;;;;6.68;1.80;;;22.40;43.30;;;;;;5072690;28;20563;-66
2024/02/19 12:23:52;;;;;;;4.70;1.95;;;22.40;43.20;;;;;;5072742;28;20561;-66
2024/02/19 12:26:21;;;;;;;6.28;1.60;;;22.40;43.30;;;;;;5073189;28;20406;-66
2024/02/19 12:28:49;;;;;;;4.30;1.33;;;22.50;43.30;;;;;;5072287;28;20274;-67
2024/02/19 12:31:16;;;;;;;4.38;1.60;;;22.40;43.30;;;;;;5072673;28;20572;-67
2024/02/19 12:33:43;;;;;;;6.03;1.75;;;22.40;43.20;;;;;;5073106;28;20277;-67
2024/02/19 12:36:12;;;;;;;4.40;1.48;;;22.50;43.30;;;;;;5072714;28;20225;-66
2024/02/19 12:38:41;;;;;;;5.07;1.63;;;22.40;43.20;;;;;;5072625;28;20195;-67
2024/02/19 12:41:10;;;;;;;5.32;1.60;;;22.50;43.30;;;;;;5072965;28;20226;-66
2024/02/19 12:43:39;;;;;;;3.67;1.48;;;22.40;43.20;;;;;;5072593;28;20211;-67
2024/02/19 12:46:06;;;;;;;4.50;1.50;;;22.50;43.30;;;;;;5072356;28;20692;-67